createdAt,value
2019-04-05T00:01:36.757Z,5.13
2019-04-05T00:04:07.529Z,2.63
2019-04-05T00:06:38.116Z,5.23
2019-04-05T00:09:09.112Z,1.77
2019-04-05T00:11:41.456Z,5.03
2019-04-05T00:14:12.114Z,4.03
2019-04-05T00:16:42.238Z,2.10
2019-04-05T00:19:12.870Z,2.70
2019-04-05T00:21:42.871Z,6.50
2019-04-05T00:24:13.920Z,5.60
2019-04-05T00:26:45.381Z,4.73
2019-04-05T00:29:15.455Z,3.03
2019-04-05T00:31:45.581Z,1.30
2019-04-05T00:34:16.194Z,3.50
2019-04-05T00:36:46.536Z,10.83
2019-04-05T00:39:16.604Z,8.60
2019-04-05T00:41:47.138Z,2.80
2019-04-05T00:44:17.177Z,2.53
2019-04-05T00:46:48.477Z,7.30
2019-04-05T00:49:18.548Z,3.67
2019-04-05T00:51:50.834Z,3.10
2019-04-05T00:54:20.888Z,2.17
2019-04-05T00:56:52.016Z,4.67
2019-04-05T00:59:22.418Z,3.13
2019-04-05T01:01:52.638Z,1.20
2019-04-05T01:04:23.736Z,2.53
2019-04-05T01:06:53.888Z,3.93
2019-04-05T01:09:24.770Z,6.20
2019-04-05T01:11:55.108Z,3.70
2019-04-05T01:14:26.678Z,1.87
2019-04-05T01:16:57.078Z,3.70
2019-04-05T01:19:30.356Z,3.23
2019-04-05T01:22:03.461Z,2.67
2019-04-05T01:24:34.115Z,2.90
2019-04-05T01:27:07.199Z,3.17
2019-04-05T01:29:37.386Z,4.30
2019-04-05T01:32:07.609Z,4.33
2019-04-05T01:34:38.125Z,4.50
2019-04-05T01:37:08.765Z,1.67
2019-04-05T01:39:38.794Z,11.47
2019-04-05T01:42:09.132Z,17.33
2019-04-05T01:44:39.604Z,9.43
2019-04-05T01:47:09.611Z,9.10
2019-04-05T01:49:39.754Z,11.20
2019-04-05T01:52:10.533Z,8.83
2019-04-05T01:54:40.877Z,8.13
2019-04-05T01:57:11.552Z,11.00
2019-04-05T01:59:42.015Z,2.13
2019-04-05T02:02:12.819Z,5.03
2019-04-05T02:04:44.341Z,2.80
2019-04-05T02:07:14.789Z,6.63
2019-04-05T02:09:45.041Z,2.70
2019-04-05T02:12:15.256Z,1.77
2019-04-05T02:14:45.861Z,3.90
2019-04-05T02:17:16.371Z,5.70
2019-04-05T02:19:47.043Z,6.20
2019-04-05T02:22:18.390Z,3.87
2019-04-05T02:24:50.196Z,2.60
2019-04-05T02:27:21.100Z,10.33
2019-04-05T02:29:51.397Z,6.93
2019-04-05T02:32:21.724Z,1.67
2019-04-05T02:34:52.602Z,3.23
2019-04-05T02:37:22.902Z,3.50
2019-04-05T02:39:53.559Z,6.40
2019-04-05T02:42:24.106Z,3.77
2019-04-05T02:44:55.677Z,2.40
2019-04-05T02:47:26.354Z,3.73
2019-04-05T02:49:58.265Z,5.27
2019-04-05T02:52:30.386Z,8.27
2019-04-05T02:55:01.148Z,3.20
2019-04-05T02:57:32.165Z,5.60
2019-04-05T03:00:03.233Z,1.67
2019-04-05T03:02:33.488Z,1.67
2019-04-05T03:05:03.775Z,8.07
2019-04-05T03:07:35.284Z,1.80
2019-04-05T03:10:06.904Z,4.20
2019-04-05T03:12:38.136Z,2.63
2019-04-05T03:15:08.766Z,2.60
2019-04-05T03:17:39.132Z,9.53
2019-04-05T03:20:09.336Z,15.33
2019-04-05T03:22:40.119Z,11.30
2019-04-05T03:25:10.421Z,10.23
2019-04-05T03:27:40.786Z,6.40
2019-04-05T03:30:12.144Z,1.47
2019-04-05T03:32:44.069Z,2.50
2019-04-05T03:35:15.353Z,11.13
2019-04-05T03:37:47.055Z,8.40
2019-04-05T03:40:18.118Z,6.57
2019-04-05T03:42:48.434Z,8.70
2019-04-05T03:45:20.264Z,9.67
2019-04-05T03:47:50.902Z,4.73
2019-04-05T03:50:23.270Z,3.73
2019-04-05T03:52:53.688Z,8.63
2019-04-05T03:55:24.174Z,2.33
2019-04-05T03:57:55.552Z,3.10
2019-04-05T04:00:25.814Z,14.90
2019-04-05T04:02:56.002Z,2.90
2019-04-05T04:05:26.418Z,5.53
2019-04-05T04:07:56.997Z,5.33
2019-04-05T04:10:28.531Z,8.47
2019-04-05T04:13:00.175Z,10.60
2019-04-05T04:15:30.473Z,8.03
2019-04-05T04:18:00.864Z,8.17
2019-04-05T04:20:40.489Z,6.40
2019-04-05T04:23:11.451Z,26.43
2019-04-05T04:25:43.776Z,16.33
2019-04-05T04:28:14.513Z,2.73
2019-04-05T04:30:45.532Z,8.03
2019-04-05T04:33:15.745Z,8.07
2019-04-05T04:35:46.505Z,2.50
2019-04-05T04:38:17.206Z,14.13
2019-04-05T04:40:48.218Z,4.40
2019-04-05T04:43:18.332Z,11.23
2019-04-05T04:45:48.408Z,22.23
2019-04-05T04:48:18.828Z,3.10
2019-04-05T04:50:49.308Z,5.67
2019-04-05T04:53:20.105Z,17.93
2019-04-05T04:55:50.265Z,29.17
2019-04-05T04:58:20.672Z,6.43
2019-04-05T05:00:52.285Z,35.30
2019-04-05T05:03:22.373Z,14.43
2019-04-05T05:05:52.645Z,12.97
2019-04-05T05:08:23.224Z,28.77
2019-04-05T05:10:53.503Z,32.00
2019-04-05T05:13:24.002Z,23.27
2019-04-05T05:15:54.634Z,22.37
2019-04-05T05:18:25.350Z,17.67
2019-04-05T05:20:55.809Z,39.57
2019-04-05T05:23:26.044Z,38.20
2019-04-05T05:25:56.369Z,7.27
2019-04-05T05:28:27.197Z,33.50
2019-04-05T05:30:57.651Z,19.77
2019-04-05T05:33:28.048Z,15.40
2019-04-05T05:35:58.179Z,45.33
2019-04-05T05:38:28.736Z,33.67
2019-04-05T05:40:58.827Z,17.23
2019-04-05T05:43:29.375Z,24.43
2019-04-05T05:46:00.617Z,21.40
2019-04-05T05:48:31.132Z,18.33
2019-04-05T05:51:02.533Z,38.93
2019-04-05T05:53:32.689Z,28.57
2019-04-05T05:56:03.548Z,35.03
2019-04-05T05:58:33.538Z,32.17
2019-04-05T06:01:04.064Z,35.23
2019-04-05T06:03:35.017Z,24.17
2019-04-05T06:06:05.440Z,22.40
2019-04-05T06:08:35.499Z,14.50
2019-04-05T06:11:07.405Z,20.43
2019-04-05T06:13:37.569Z,20.67
2019-04-05T06:16:09.175Z,32.23
2019-04-05T06:18:39.787Z,31.50
2019-04-05T06:21:14.027Z,11.37
2019-04-05T06:23:48.330Z,18.73
2019-04-05T06:26:19.154Z,15.60
2019-04-05T06:28:50.746Z,37.37
2019-04-05T06:31:21.257Z,28.53
2019-04-05T06:33:52.128Z,25.47
2019-04-05T06:36:22.442Z,27.90
2019-04-05T06:38:52.862Z,55.63
2019-04-05T06:41:24.009Z,45.90
2019-04-05T06:44:02.604Z,36.73
2019-04-05T06:46:32.677Z,37.17
2019-04-05T06:49:02.997Z,109.90
2019-04-05T06:51:35.042Z,66.70
2019-04-05T06:54:05.085Z,85.27
2019-04-05T06:56:35.506Z,39.50
2019-04-05T06:59:07.289Z,45.23
2019-04-05T07:01:37.532Z,34.00
2019-04-05T07:04:07.917Z,20.50
2019-04-05T07:06:38.421Z,22.10
2019-04-05T07:09:10.371Z,26.67
2019-04-05T07:11:40.743Z,15.27
2019-04-05T07:14:14.332Z,27.93
2019-04-05T07:16:46.415Z,15.43
2019-04-05T07:19:18.153Z,15.63
2019-04-05T07:21:50.510Z,8.07
2019-04-05T07:24:20.686Z,15.10
2019-04-05T07:26:51.022Z,21.37
2019-04-05T07:29:31.876Z,34.43
2019-04-05T07:32:02.575Z,10.53
2019-04-05T07:34:34.461Z,27.30
2019-04-05T07:37:06.756Z,18.40
2019-04-05T07:39:37.273Z,15.80
2019-04-05T07:42:07.753Z,16.87
2019-04-05T07:44:37.845Z,20.67
2019-04-05T07:47:08.393Z,30.13
2019-04-05T07:49:38.509Z,29.17
2019-04-05T07:52:09.108Z,31.20
2019-04-05T07:54:39.101Z,21.93
2019-04-05T07:57:10.876Z,22.97
2019-04-05T07:59:40.900Z,7.10
2019-04-05T08:02:11.156Z,12.37
2019-04-05T08:04:41.193Z,15.83
2019-04-05T08:07:12.518Z,21.60
2019-04-05T08:09:42.996Z,14.23
2019-04-05T08:12:13.412Z,14.20
2019-04-05T08:14:43.557Z,15.50
2019-04-05T08:17:13.789Z,12.57
2019-04-05T08:19:44.289Z,7.77
2019-04-05T08:22:14.921Z,15.80
2019-04-05T08:24:44.954Z,15.97
2019-04-05T08:27:15.031Z,24.93
2019-04-05T08:29:45.547Z,19.73
2019-04-05T08:32:15.596Z,21.53
2019-04-05T08:34:47.724Z,12.77
2019-04-05T08:37:18.216Z,19.63
2019-04-05T08:39:49.210Z,24.97
2019-04-05T08:42:19.393Z,18.40
2019-04-05T08:44:50.420Z,15.20
2019-04-05T08:47:22.597Z,31.13
2019-04-05T08:49:52.682Z,16.17
2019-04-05T08:52:23.608Z,19.77
2019-04-05T08:54:55.664Z,18.63
2019-04-05T08:57:26.136Z,19.77
2019-04-05T08:59:57.741Z,21.30
2019-04-05T09:02:28.577Z,30.17
2019-04-05T09:04:58.887Z,34.43
2019-04-05T09:07:29.401Z,22.30
2019-04-05T09:09:59.414Z,18.30
2019-04-05T09:12:29.761Z,26.00
2019-04-05T09:14:59.956Z,13.50
2019-04-05T09:17:30.035Z,20.50
2019-04-05T09:20:00.156Z,22.00
2019-04-05T09:22:30.626Z,30.20
2019-04-05T09:25:00.774Z,16.20
2019-04-05T09:27:30.780Z,26.27
2019-04-05T09:30:01.174Z,11.93
2019-04-05T09:32:31.599Z,16.60
2019-04-05T09:35:01.629Z,13.07
2019-04-05T09:37:31.997Z,27.47
2019-04-05T09:40:02.277Z,16.33
2019-04-05T09:42:32.833Z,13.10
2019-04-05T09:45:04.349Z,19.67
2019-04-05T09:47:35.018Z,28.33
2019-04-05T09:50:05.563Z,16.37
2019-04-05T09:52:35.657Z,17.60
2019-04-05T09:55:23.870Z,25.43
2019-04-05T09:57:54.408Z,33.00
2019-04-05T10:00:26.373Z,14.83
2019-04-05T10:02:56.906Z,20.63
2019-04-05T10:05:28.041Z,36.17
2019-04-05T10:07:59.450Z,19.90
2019-04-05T10:10:29.893Z,20.10
2019-04-05T10:13:00.045Z,25.20
2019-04-05T10:15:30.264Z,15.30
2019-04-05T10:18:01.225Z,20.83
2019-04-05T10:20:31.257Z,23.93
2019-04-05T10:23:02.689Z,16.47
2019-04-05T10:25:33.474Z,20.07
2019-04-05T10:28:04.229Z,12.67
2019-04-05T10:30:34.310Z,23.57
2019-04-05T10:33:05.072Z,22.40
2019-04-05T10:35:35.159Z,25.10
2019-04-05T10:38:07.089Z,21.53
2019-04-05T10:40:38.241Z,27.83
2019-04-05T10:43:08.943Z,15.53
2019-04-05T10:45:39.103Z,19.23
2019-04-05T10:48:09.145Z,12.90
2019-04-05T10:50:39.517Z,16.90
2019-04-05T10:53:09.508Z,21.57
2019-04-05T10:55:39.919Z,19.50
2019-04-05T10:58:09.980Z,19.83
2019-04-05T11:00:40.636Z,22.57
2019-04-05T11:03:11.161Z,16.60
2019-04-05T11:05:41.286Z,34.90
2019-04-05T11:08:11.305Z,18.70
2019-04-05T11:10:41.601Z,18.00
2019-04-05T11:13:14.144Z,25.23
2019-04-05T11:15:46.453Z,10.27
2019-04-05T11:18:16.734Z,10.13
2019-04-05T11:20:49.013Z,24.17
2019-04-05T11:23:20.941Z,31.13
2019-04-05T11:25:50.353Z,15.63
2019-04-05T11:28:21.222Z,27.77
2019-04-05T11:30:51.197Z,18.10
2019-04-05T11:33:21.438Z,23.30
2019-04-05T11:35:51.761Z,20.57
2019-04-05T11:38:24.269Z,21.27
2019-04-05T11:40:54.365Z,18.40
2019-04-05T11:43:26.971Z,16.60
2019-04-05T11:45:58.274Z,29.33
2019-04-05T11:48:30.342Z,27.77
2019-04-05T11:51:00.417Z,28.57
2019-04-05T11:53:30.442Z,21.37
2019-04-05T11:56:13.481Z,29.37
2019-04-05T11:58:32.426Z,18.90
2019-04-05T12:01:18.625Z,29.50
2019-04-05T12:03:48.845Z,18.40
2019-04-05T12:06:18.893Z,29.43
2019-04-05T12:08:49.010Z,29.50
2019-04-05T12:11:18.992Z,29.33
2019-04-05T12:13:49.035Z,33.70
2019-04-05T12:16:19.116Z,22.17
2019-04-05T12:18:49.098Z,31.17
2019-04-05T12:21:20.894Z,22.50
2019-04-05T12:23:50.970Z,22.00
2019-04-05T12:26:25.007Z,29.83
2019-04-05T12:28:55.505Z,29.73
2019-04-05T12:31:26.729Z,28.40
2019-04-05T12:33:57.224Z,20.80
2019-04-05T12:36:28.114Z,34.80
2019-04-05T12:38:58.092Z,38.53
2019-04-05T12:41:28.118Z,15.27
2019-04-05T12:43:58.181Z,33.37
2019-04-05T12:46:28.269Z,36.40
2019-04-05T12:48:58.293Z,34.60
2019-04-05T12:51:28.336Z,30.53
2019-04-05T12:53:58.493Z,24.83
2019-04-05T12:56:28.551Z,26.17
2019-04-05T12:58:59.967Z,16.17
2019-04-05T13:01:30.537Z,25.10
2019-04-05T13:04:01.963Z,24.00
2019-04-05T13:06:32.250Z,25.53
2019-04-05T13:09:05.279Z,37.33
2019-04-05T13:11:34.018Z,26.40
2019-04-05T13:14:04.025Z,18.50
2019-04-05T13:16:34.084Z,19.30
2019-04-05T13:19:04.338Z,13.23
2019-04-05T13:21:34.882Z,10.50
2019-04-05T13:24:09.383Z,24.77
2019-04-05T13:26:37.046Z,14.53
2019-04-05T13:29:07.291Z,12.97
2019-04-05T13:31:37.909Z,11.63
2019-04-05T13:34:08.363Z,8.80
2019-04-05T13:36:38.549Z,20.83
2019-04-05T13:39:09.245Z,17.90
2019-04-05T13:41:39.254Z,13.13
2019-04-05T13:44:09.224Z,18.30
2019-04-05T13:46:42.597Z,18.57
2019-04-05T13:49:12.047Z,22.47
2019-04-05T13:51:42.833Z,19.17
2019-04-05T13:54:13.098Z,27.70
2019-04-05T13:56:43.157Z,27.73
2019-04-05T13:59:13.278Z,26.23
2019-04-05T14:01:43.272Z,32.50
2019-04-05T14:04:13.364Z,36.47
2019-04-05T14:06:43.768Z,25.53
2019-04-05T14:09:15.605Z,28.23
2019-04-05T14:11:45.948Z,18.27
2019-04-05T14:14:16.263Z,18.53
2019-04-05T14:16:46.444Z,26.10
2019-04-05T14:19:18.426Z,12.10
2019-04-05T14:21:48.017Z,16.37
2019-04-05T14:24:18.009Z,12.30
2019-04-05T14:26:48.116Z,15.43
2019-04-05T14:29:18.527Z,16.23
2019-04-05T14:31:48.754Z,19.73
2019-04-05T14:34:18.841Z,31.70
2019-04-05T14:36:50.053Z,20.07
2019-04-05T14:39:20.613Z,19.70
2019-04-05T14:41:50.572Z,28.20
2019-04-05T14:44:20.634Z,26.27
2019-04-05T14:46:50.644Z,21.77
2019-04-05T14:49:22.775Z,25.73
2019-04-05T14:51:56.447Z,17.87
2019-04-05T14:54:25.351Z,36.90
2019-04-05T14:56:57.376Z,46.30
2019-04-05T14:59:27.340Z,35.10
2019-04-05T15:01:57.873Z,25.63
2019-04-05T15:04:27.881Z,29.10
2019-04-05T15:07:01.204Z,20.40
2019-04-05T15:09:30.466Z,33.40
2019-04-05T15:12:00.604Z,34.93
2019-04-05T15:14:30.917Z,32.47
2019-04-05T15:17:00.888Z,35.93
2019-04-05T15:19:30.865Z,28.73
2019-04-05T15:22:05.894Z,38.40
2019-04-05T15:24:33.285Z,25.43
2019-04-05T15:27:03.994Z,41.13
2019-04-05T15:29:33.980Z,30.37
2019-04-05T15:32:04.682Z,28.30
2019-04-05T15:34:34.862Z,25.50
2019-04-05T15:37:04.922Z,30.33
2019-04-05T15:39:34.998Z,28.60
2019-04-05T15:42:05.233Z,20.83
2019-04-05T15:44:35.598Z,31.20
2019-04-05T15:47:06.449Z,28.43
2019-04-05T15:49:36.442Z,21.77
2019-04-05T15:52:17.987Z,33.63
2019-04-05T15:54:38.331Z,20.73
2019-04-05T15:57:08.328Z,32.90
2019-04-05T15:59:38.553Z,20.60
2019-04-05T16:02:08.793Z,30.73
2019-04-05T16:04:38.873Z,36.93
2019-04-05T16:07:09.548Z,26.73
2019-04-05T16:09:39.565Z,48.67
2019-04-05T16:12:09.724Z,27.33
2019-04-05T16:14:39.816Z,27.93
2019-04-05T16:17:12.387Z,33.70
2019-04-05T16:19:41.448Z,25.60
2019-04-05T16:22:11.536Z,32.87
2019-04-05T16:24:41.713Z,31.37
2019-04-05T16:27:11.769Z,24.80
2019-04-05T16:29:42.246Z,15.53
2019-04-05T16:32:12.710Z,20.53
2019-04-05T16:34:43.085Z,22.73
2019-04-05T16:37:13.512Z,23.13
2019-04-05T16:39:43.573Z,25.93
2019-04-05T16:42:13.767Z,20.10
2019-04-05T16:44:44.063Z,14.43
2019-04-05T16:47:14.159Z,24.17
2019-04-05T16:49:44.256Z,34.00
2019-04-05T16:52:14.245Z,24.73
2019-04-05T16:54:44.520Z,33.57
2019-04-05T16:57:14.828Z,45.17
2019-04-05T16:59:44.991Z,29.17
2019-04-05T17:02:15.308Z,35.77
2019-04-05T17:04:45.484Z,39.43
2019-04-05T17:07:16.333Z,40.20
2019-04-05T17:09:47.156Z,37.70
2019-04-05T17:12:17.144Z,46.43
2019-04-05T17:14:47.150Z,28.40
2019-04-05T17:17:17.661Z,39.73
2019-04-05T17:19:48.013Z,34.97
2019-04-05T17:22:18.127Z,34.20
2019-04-05T17:24:48.582Z,30.93
2019-04-05T17:27:18.692Z,36.83
2019-04-05T17:29:49.353Z,31.93
2019-04-05T17:32:19.896Z,53.13
2019-04-05T17:34:49.908Z,29.73
2019-04-05T17:37:19.925Z,36.37
2019-04-05T17:39:49.929Z,33.57
2019-04-05T17:42:19.973Z,32.73
2019-04-05T17:44:50.014Z,41.33
2019-04-05T17:47:20.072Z,39.40
2019-04-05T17:49:50.210Z,37.50
2019-04-05T17:52:20.748Z,38.03
2019-04-05T17:54:50.871Z,40.53
2019-04-05T17:57:21.072Z,39.83
2019-04-05T17:59:51.184Z,23.43
2019-04-05T18:02:21.252Z,28.90
2019-04-05T18:04:51.385Z,40.47
2019-04-05T18:07:21.406Z,43.90
2019-04-05T18:09:51.402Z,38.73
2019-04-05T18:12:21.796Z,32.73
2019-04-05T18:14:52.080Z,43.33
2019-04-05T18:17:22.081Z,37.03
2019-04-05T18:19:52.178Z,50.00
2019-04-05T18:22:22.248Z,40.87
2019-04-05T18:24:52.936Z,35.00
2019-04-05T18:27:23.150Z,41.87
2019-04-05T18:29:53.105Z,34.27
2019-04-05T18:32:23.236Z,36.03
2019-04-05T18:34:53.252Z,40.73
2019-04-05T18:37:23.900Z,34.33
2019-04-05T18:39:54.478Z,42.20
2019-04-05T18:42:24.724Z,50.97
2019-04-05T18:44:55.284Z,38.00
2019-04-05T18:47:26.183Z,44.10
2019-04-05T18:50:02.780Z,52.43
2019-04-05T18:52:27.989Z,44.60
2019-04-05T18:54:58.378Z,47.80
2019-04-05T18:57:28.652Z,44.97
2019-04-05T18:59:59.116Z,49.97
2019-04-05T19:02:29.303Z,45.87
2019-04-05T19:04:59.721Z,43.27
2019-04-05T19:07:29.749Z,54.83
2019-04-05T19:09:59.917Z,51.30
2019-04-05T19:12:30.291Z,49.57
2019-04-05T19:15:00.330Z,39.70
2019-04-05T19:17:30.345Z,47.43
2019-04-05T19:20:00.725Z,61.33
2019-04-05T19:22:31.192Z,63.47
2019-04-05T19:25:01.188Z,59.77
2019-04-05T19:27:31.552Z,37.93
2019-04-05T19:50:16.305Z,56.57
2019-04-05T19:52:47.846Z,47.73
2019-04-05T19:55:18.017Z,40.67
2019-04-05T19:57:48.111Z,65.57
2019-04-05T20:00:19.486Z,72.20
2019-04-05T20:02:49.695Z,52.30
2019-04-05T20:05:19.662Z,71.70
2019-04-05T20:07:49.621Z,46.70
2019-04-05T20:10:20.755Z,54.97
2019-04-05T20:12:51.549Z,61.27
2019-04-05T20:15:22.024Z,65.30
2019-04-05T20:17:52.530Z,46.20
2019-04-05T20:20:22.533Z,48.80
2019-04-05T20:22:53.028Z,29.47
2019-04-05T20:25:23.189Z,48.00
2019-04-05T20:27:53.606Z,35.60
2019-04-05T20:30:23.710Z,16.87
2019-04-05T20:32:53.813Z,27.13
2019-04-05T20:35:24.136Z,14.33
2019-04-05T20:37:54.609Z,24.87
2019-04-05T20:40:24.816Z,17.57
2019-04-05T20:42:56.128Z,14.60
2019-04-05T20:45:26.325Z,21.10
2019-04-05T20:47:57.708Z,15.40
2019-04-05T20:50:28.061Z,14.90
2019-04-05T20:52:58.122Z,9.20
2019-04-05T20:55:28.344Z,14.73
2019-04-05T20:57:58.938Z,16.53
2019-04-05T21:00:29.013Z,23.93
2019-04-05T21:03:00.322Z,19.33
2019-04-05T21:05:31.096Z,11.87
2019-04-05T21:08:01.767Z,13.30
2019-04-05T21:10:32.937Z,11.27
2019-04-05T21:13:03.773Z,11.30
2019-04-05T21:15:34.646Z,18.33
2019-04-05T21:18:05.153Z,10.37
2019-04-05T21:20:35.465Z,15.00
2019-04-05T21:23:07.829Z,9.00
2019-04-05T21:25:39.005Z,6.43
2019-04-05T21:28:09.218Z,8.37
2019-04-05T21:30:40.601Z,6.93
2019-04-05T21:33:11.192Z,5.60
2019-04-05T21:35:41.510Z,7.80
2019-04-05T21:38:12.393Z,9.73
2019-04-05T21:40:42.941Z,7.03
2019-04-05T21:43:14.429Z,6.77
2019-04-05T21:45:44.751Z,5.30
2019-04-05T21:48:19.621Z,9.80
2019-04-05T21:50:49.689Z,11.80
2019-04-05T21:53:19.969Z,12.30
2019-04-05T21:55:50.060Z,7.50
2019-04-05T21:58:20.101Z,25.87
2019-04-05T22:01:02.113Z,9.73
2019-04-05T22:03:32.641Z,10.83
2019-04-05T22:06:06.464Z,9.27
2019-04-05T22:08:37.115Z,8.80
2019-04-05T22:11:08.978Z,5.43
2019-04-05T22:13:39.046Z,3.37
2019-04-05T22:16:09.341Z,7.00
2019-04-05T22:18:39.358Z,10.10
2019-04-05T22:21:09.464Z,5.60
2019-04-05T22:23:39.846Z,6.00
2019-04-05T22:26:11.044Z,8.03
2019-04-05T22:28:41.052Z,4.40
2019-04-05T22:31:11.082Z,5.07
2019-04-05T22:33:41.069Z,3.83
2019-04-05T22:36:11.090Z,5.50
2019-04-05T22:38:41.076Z,4.70
2019-04-05T22:41:11.628Z,7.30
2019-04-05T22:43:41.797Z,5.70
2019-04-05T22:46:11.999Z,7.27
2019-04-05T22:48:42.296Z,2.80
2019-04-05T22:51:12.421Z,4.10
2019-04-05T22:53:42.553Z,4.10
2019-04-05T22:56:12.813Z,2.50
2019-04-05T22:58:42.849Z,2.50
2019-04-05T23:01:12.865Z,5.70
2019-04-05T23:03:43.164Z,5.70
2019-04-05T23:06:18.325Z,21.37
2019-04-05T23:08:49.867Z,3.30
2019-04-05T23:11:20.116Z,5.43
2019-04-05T23:13:50.429Z,9.03
2019-04-05T23:16:20.717Z,3.40
2019-04-05T23:18:51.991Z,5.70
2019-04-05T23:21:21.968Z,6.33
2019-04-05T23:23:52.036Z,9.60
2019-04-05T23:26:24.780Z,19.40
2019-04-05T23:28:55.312Z,2.83
2019-04-05T23:31:25.305Z,4.97
2019-04-05T23:33:55.858Z,5.40
2019-04-05T23:36:25.812Z,4.20
2019-04-05T23:38:55.836Z,4.87
2019-04-05T23:41:26.254Z,10.07
2019-04-05T23:43:56.629Z,5.20
2019-04-05T23:46:26.593Z,5.10
2019-04-05T23:48:58.219Z,3.67
2019-04-05T23:51:28.387Z,7.60
2019-04-05T23:53:58.482Z,9.37
2019-04-05T23:56:28.505Z,3.53
2019-04-05T23:58:59.033Z,4.73
